createdAt,value
2022-12-14T00:01:09.933Z,-5.55
2022-12-14T00:04:19.788Z,-5.55
2022-12-14T00:07:29.875Z,-5.56
2022-12-14T00:10:39.999Z,-5.54
2022-12-14T00:13:55.062Z,-5.52
2022-12-14T00:17:03.395Z,-5.51
2022-12-14T00:20:13.523Z,-5.57
2022-12-14T00:23:21.724Z,-5.52
2022-12-14T00:26:33.070Z,-5.43
2022-12-14T00:29:41.365Z,-5.44
2022-12-14T00:32:49.861Z,-5.51
2022-12-14T00:36:00.382Z,-5.47
2022-12-14T00:39:08.677Z,-5.42
2022-12-14T00:42:16.942Z,-5.47
2022-12-14T00:45:25.178Z,-5.35
2022-12-14T00:48:34.883Z,-5.28
2022-12-14T00:51:49.811Z,-5.24
2022-12-14T00:54:58.215Z,-5.36
2022-12-14T00:58:06.668Z,-5.32
2022-12-14T01:01:15.094Z,-5.31
2022-12-14T01:04:24.722Z,-5.20
2022-12-14T01:07:34.363Z,-5.24
2022-12-14T01:10:43.551Z,-5.25
2022-12-14T01:13:52.147Z,-5.21
2022-12-14T01:17:00.333Z,-5.28
2022-12-14T01:20:10.564Z,-5.30
2022-12-14T01:23:20.159Z,-5.40
2022-12-14T01:26:30.621Z,-5.33
2022-12-14T01:29:39.171Z,-5.25
2022-12-14T01:32:47.789Z,-5.28
2022-12-14T01:35:56.393Z,-5.25
2022-12-14T01:39:13.547Z,-5.30
2022-12-14T01:42:21.924Z,-5.36
2022-12-14T01:45:30.594Z,-5.38
2022-12-14T01:48:38.904Z,-5.39
2022-12-14T01:51:56.911Z,-5.33
2022-12-14T01:55:14.539Z,-5.35
2022-12-14T01:58:25.440Z,-5.31
2022-12-14T02:01:34.246Z,-5.29
2022-12-14T02:04:51.706Z,-5.34
2022-12-14T02:08:00.422Z,-5.28
2022-12-14T02:11:10.083Z,-5.27
2022-12-14T02:14:18.382Z,-5.26
2022-12-14T02:17:28.985Z,-5.14
2022-12-14T02:20:50.243Z,-5.17
2022-12-14T02:24:35.392Z,-5.15
2022-12-14T02:28:10.934Z,-5.17
2022-12-14T02:31:29.631Z,-5.07
2022-12-14T02:34:54.937Z,-5.07
2022-12-14T02:38:32.365Z,-5.03
2022-12-14T02:41:54.436Z,-4.95
2022-12-14T02:45:12.305Z,-4.87
2022-12-14T02:48:28.161Z,-4.80
2022-12-14T02:51:53.764Z,-4.83
2022-12-14T02:55:08.963Z,-4.83
2022-12-14T02:58:23.765Z,-4.78
2022-12-14T03:01:32.827Z,-4.77
2022-12-14T03:04:47.666Z,-4.78
2022-12-14T03:08:00.621Z,-4.81
2022-12-14T03:11:12.165Z,-4.77
2022-12-14T03:14:27.342Z,-4.78
2022-12-14T03:17:38.746Z,-4.93
2022-12-14T03:20:54.523Z,-4.89
2022-12-14T03:24:12.532Z,-4.68
2022-12-14T03:27:26.340Z,-4.75
2022-12-14T03:30:59.493Z,-4.72
2022-12-14T03:34:13.257Z,-4.68
2022-12-14T03:37:33.827Z,-4.65
2022-12-14T03:40:52.362Z,-4.62
2022-12-14T03:44:17.102Z,-4.70
2022-12-14T03:47:54.864Z,-4.61
2022-12-14T03:51:14.212Z,-4.63
2022-12-14T03:55:24.321Z,-4.61
2022-12-14T03:58:44.861Z,-4.52
2022-12-14T04:02:03.689Z,-4.49
2022-12-14T04:05:19.212Z,-4.39
2022-12-14T04:08:37.115Z,-4.45
2022-12-14T04:12:14.141Z,-4.52
2022-12-14T04:15:46.413Z,-4.73
2022-12-14T04:19:00.561Z,-4.67
2022-12-14T04:22:14.835Z,-4.58
2022-12-14T04:25:48.909Z,-4.58
2022-12-14T04:29:22.222Z,-4.54
2022-12-14T04:32:36.904Z,-4.54
2022-12-14T04:35:46.020Z,-4.51
2022-12-14T04:39:01.475Z,-4.46
2022-12-14T04:42:12.844Z,-4.37
2022-12-14T04:45:28.634Z,-4.37
2022-12-14T04:48:46.017Z,-4.40
2022-12-14T04:52:05.205Z,-4.44
2022-12-14T04:55:21.855Z,-4.40
2022-12-14T04:58:32.736Z,-4.42
2022-12-14T05:01:55.860Z,-4.45
2022-12-14T05:05:17.170Z,-4.34
2022-12-14T05:09:01.432Z,-4.42
2022-12-14T05:12:18.368Z,-4.38
2022-12-14T05:15:35.381Z,-4.40
2022-12-14T05:18:46.529Z,-4.27
2022-12-14T05:21:56.090Z,-4.41
2022-12-14T05:25:04.601Z,-4.26
2022-12-14T05:28:13.886Z,-4.36
2022-12-14T05:31:22.454Z,-4.29
2022-12-14T05:34:32.333Z,-4.28
2022-12-14T05:37:40.825Z,-4.23
2022-12-14T05:40:49.209Z,-4.28
2022-12-14T05:43:57.408Z,-4.26
2022-12-14T05:47:06.139Z,-4.22
2022-12-14T05:50:15.825Z,-4.25
2022-12-14T05:53:24.194Z,-4.29
2022-12-14T05:56:32.876Z,-4.35
2022-12-14T05:59:41.275Z,-4.35
2022-12-14T06:02:49.718Z,-4.38
2022-12-14T06:06:03.925Z,-4.39
2022-12-14T06:09:16.179Z,-4.37
2022-12-14T06:12:24.427Z,-4.34
2022-12-14T06:15:34.237Z,-4.36
2022-12-14T06:18:45.166Z,-4.42
2022-12-14T06:21:54.726Z,-4.48
2022-12-14T06:25:02.955Z,-4.42
2022-12-14T06:28:11.271Z,-4.26
2022-12-14T06:31:22.675Z,-4.25
2022-12-14T06:34:35.361Z,-4.18
2022-12-14T06:37:50.621Z,-4.12
2022-12-14T06:40:58.826Z,-4.12
2022-12-14T06:44:11.776Z,-4.10
2022-12-14T06:47:20.307Z,-4.10
2022-12-14T06:50:29.040Z,-4.16
2022-12-14T06:53:39.221Z,-4.05
2022-12-14T06:56:49.067Z,-4.04
2022-12-14T06:59:57.318Z,-4.00
2022-12-14T07:03:06.057Z,-3.96
2022-12-14T07:06:14.700Z,-3.93
2022-12-14T07:09:24.779Z,-3.96
2022-12-14T07:12:33.399Z,-4.00
2022-12-14T07:15:41.891Z,-4.09
2022-12-14T07:18:51.448Z,-4.02
2022-12-14T07:22:06.350Z,-3.95
2022-12-14T07:25:16.215Z,-3.85
2022-12-14T07:28:24.829Z,-3.89
2022-12-14T07:31:33.443Z,-3.90
2022-12-14T07:34:41.791Z,-3.76
2022-12-14T07:37:51.413Z,-3.72
2022-12-14T07:41:05.848Z,-3.65
2022-12-14T07:44:14.915Z,-3.55
2022-12-14T07:47:23.073Z,-3.53
2022-12-14T07:50:31.326Z,-3.51
2022-12-14T07:53:40.988Z,-3.46
2022-12-14T07:56:51.030Z,-3.40
2022-12-14T07:59:59.320Z,-3.28
2022-12-14T08:03:07.579Z,-3.21
2022-12-14T08:06:17.611Z,-3.19
2022-12-14T08:09:25.904Z,-3.17
2022-12-14T08:12:35.431Z,-3.06
2022-12-14T08:15:43.663Z,-2.85
2022-12-14T08:18:54.989Z,-2.78
2022-12-14T08:22:03.191Z,-2.71
2022-12-14T08:25:11.659Z,-2.54
2022-12-14T08:28:21.237Z,-2.31
2022-12-14T08:31:29.739Z,-2.17
2022-12-14T08:34:38.013Z,-2.05
2022-12-14T08:37:47.754Z,-1.89
2022-12-14T08:40:56.914Z,-1.75
2022-12-14T08:44:07.671Z,-1.54
2022-12-14T08:47:15.960Z,-1.36
2022-12-14T08:50:24.314Z,-1.20
2022-12-14T08:53:33.607Z,-1.13
2022-12-14T08:56:42.210Z,-1.14
2022-12-14T09:00:01.267Z,-1.19
2022-12-14T09:03:11.801Z,-1.20
2022-12-14T09:06:24.397Z,-0.91
2022-12-14T09:09:33.070Z,-0.69
2022-12-14T09:12:41.573Z,-0.51
2022-12-14T09:16:00.135Z,-0.18
2022-12-14T09:19:08.604Z,0.10
2022-12-14T09:22:17.034Z,0.25
2022-12-14T09:25:25.601Z,0.47
2022-12-14T09:28:37.766Z,0.69
2022-12-14T09:31:47.741Z,0.78
2022-12-14T09:34:56.812Z,0.96
2022-12-14T09:38:05.215Z,0.95
2022-12-14T09:41:32.206Z,0.83
2022-12-14T09:44:58.819Z,0.65
2022-12-14T09:48:19.412Z,0.66
2022-12-14T09:51:37.007Z,0.47
2022-12-14T09:54:50.057Z,0.18
2022-12-14T09:58:06.769Z,0.12
2022-12-14T10:06:01.177Z,0.07
2022-12-14T10:09:22.040Z,-0.06
2022-12-14T10:12:49.341Z,0.15
2022-12-14T10:16:11.705Z,0.32
2022-12-14T10:19:37.466Z,0.49
2022-12-14T10:22:52.744Z,0.23
2022-12-14T10:26:07.658Z,0.46
2022-12-14T10:29:23.505Z,0.62
2022-12-14T10:32:37.235Z,0.61
2022-12-14T10:35:53.112Z,0.76
2022-12-14T10:39:08.755Z,0.98
2022-12-14T10:42:27.565Z,1.09
2022-12-14T10:45:49.387Z,1.03
2022-12-14T10:49:10.335Z,0.96
2022-12-14T10:52:24.217Z,0.98
2022-12-14T10:55:41.121Z,1.01
2022-12-14T10:59:27.514Z,1.28
2022-12-14T11:02:41.927Z,1.28
2022-12-14T11:06:03.329Z,1.31
2022-12-14T11:09:22.623Z,1.69
2022-12-14T11:12:32.566Z,1.71
2022-12-14T11:15:43.805Z,1.32
2022-12-14T11:19:00.153Z,1.20
2022-12-14T11:22:22.288Z,1.00
2022-12-14T11:25:36.762Z,0.92
2022-12-14T11:28:51.610Z,0.84
2022-12-14T11:32:01.371Z,0.90
2022-12-14T11:35:18.876Z,0.92
2022-12-14T11:38:31.242Z,1.03
2022-12-14T11:41:45.048Z,1.15
2022-12-14T11:44:55.300Z,1.27
2022-12-14T11:48:22.139Z,1.42
2022-12-14T11:51:30.436Z,1.73
2022-12-14T11:54:41.128Z,1.85
2022-12-14T11:57:54.693Z,2.11
2022-12-14T12:01:12.377Z,2.21
2022-12-14T12:04:21.033Z,2.37
2022-12-14T12:07:35.015Z,2.47
2022-12-14T12:10:50.142Z,2.33
2022-12-14T12:14:02.624Z,2.14
2022-12-14T12:17:20.748Z,1.89
2022-12-14T12:20:36.770Z,1.69
2022-12-14T12:23:52.920Z,1.27
2022-12-14T12:27:11.328Z,1.12
2022-12-14T12:30:29.211Z,1.14
2022-12-14T12:33:48.793Z,1.19
2022-12-14T12:40:35.472Z,1.39
2022-12-14T12:43:53.610Z,1.43
2022-12-14T12:47:25.579Z,1.40
2022-12-14T12:50:49.605Z,1.35
2022-12-14T12:54:03.640Z,1.51
2022-12-14T12:57:15.540Z,1.51
2022-12-14T13:00:26.938Z,1.49
2022-12-14T13:03:40.960Z,1.58
2022-12-14T13:06:57.853Z,1.78
2022-12-14T13:10:18.178Z,1.96
2022-12-14T13:13:31.911Z,2.10
2022-12-14T13:16:42.125Z,2.20
2022-12-14T13:19:55.697Z,2.18
2022-12-14T13:23:44.400Z,2.33
2022-12-14T13:27:13.665Z,1.85
2022-12-14T13:30:58.458Z,1.67
2022-12-14T13:34:31.177Z,1.88
2022-12-14T13:38:20.148Z,1.80
2022-12-14T13:41:37.368Z,1.40
2022-12-14T13:44:57.923Z,1.04
2022-12-14T13:48:10.254Z,0.54
2022-12-14T13:51:29.417Z,0.21
2022-12-14T13:54:41.071Z,0.15
2022-12-14T13:57:49.561Z,0.18
2022-12-14T14:01:07.271Z,0.08
2022-12-14T14:04:26.245Z,0.07
2022-12-14T14:07:51.600Z,0.05
2022-12-14T14:11:46.222Z,0.13
2022-12-14T14:15:03.416Z,0.09
2022-12-14T14:18:24.436Z,0.11
2022-12-14T14:22:06.035Z,0.20
2022-12-14T14:25:39.393Z,0.23
2022-12-14T14:29:06.020Z,0.33
2022-12-14T14:32:35.701Z,0.42
2022-12-14T14:35:44.100Z,0.57
2022-12-14T14:39:02.051Z,0.54
2022-12-14T14:42:23.081Z,0.56
2022-12-14T14:45:51.289Z,0.54
2022-12-14T14:48:59.675Z,0.58
2022-12-14T14:52:47.871Z,0.67
2022-12-14T14:56:35.704Z,0.76
2022-12-14T14:59:51.186Z,0.70
2022-12-14T15:03:01.577Z,0.81
2022-12-14T15:06:16.809Z,0.86
2022-12-14T15:09:33.270Z,0.92
2022-12-14T15:12:50.344Z,0.80
2022-12-14T15:15:58.822Z,0.86
2022-12-14T15:19:30.305Z,0.91
2022-12-14T15:22:45.171Z,0.91
2022-12-14T15:26:01.714Z,0.91
2022-12-14T15:29:31.522Z,0.94
2022-12-14T15:32:55.025Z,0.99
2022-12-14T15:36:18.482Z,1.01
2022-12-14T15:39:40.312Z,1.04
2022-12-14T15:42:54.997Z,1.04
2022-12-14T15:46:04.101Z,1.08
2022-12-14T15:49:24.961Z,1.02
2022-12-14T15:52:41.541Z,1.07
2022-12-14T15:56:01.190Z,1.05
2022-12-14T15:59:20.489Z,1.10
2022-12-14T16:02:46.928Z,1.10
2022-12-14T16:05:57.825Z,1.18
2022-12-14T16:09:16.907Z,1.14
2022-12-14T16:12:41.029Z,1.17
2022-12-14T16:16:09.063Z,1.22
2022-12-14T16:19:28.197Z,1.25
2022-12-14T16:22:42.090Z,1.08
2022-12-14T16:26:10.187Z,1.22
2022-12-14T16:29:42.338Z,1.15
2022-12-14T16:33:18.144Z,1.39
2022-12-14T16:36:29.006Z,1.45
2022-12-14T16:39:52.662Z,1.68
2022-12-14T16:43:28.630Z,1.71
2022-12-14T16:46:41.358Z,1.82
2022-12-14T16:50:05.383Z,1.83
2022-12-14T16:53:26.554Z,2.08
2022-12-14T16:56:56.715Z,2.08
2022-12-14T17:00:09.135Z,1.92
2022-12-14T17:03:26.306Z,1.69
2022-12-14T17:06:52.434Z,1.48
2022-12-14T17:10:01.535Z,1.53
2022-12-14T17:13:12.613Z,1.55
2022-12-14T17:16:23.004Z,1.50
2022-12-14T17:19:38.383Z,1.50
2022-12-14T17:22:49.343Z,1.44
2022-12-14T17:25:59.446Z,1.39
2022-12-14T17:29:25.446Z,1.33
2022-12-14T17:32:36.662Z,1.30
2022-12-14T17:35:53.452Z,1.29
2022-12-14T17:39:48.299Z,1.23
2022-12-14T17:42:59.456Z,1.18
2022-12-14T17:46:18.132Z,1.18
2022-12-14T17:49:37.223Z,1.14
2022-12-14T17:52:47.236Z,1.15
2022-12-14T17:56:04.023Z,1.21
2022-12-14T17:59:20.460Z,1.23
2022-12-14T18:03:23.685Z,1.28
2022-12-14T18:06:38.113Z,1.36
2022-12-14T18:10:00.249Z,1.41
2022-12-14T18:13:09.136Z,1.48
2022-12-14T18:16:22.129Z,1.43
2022-12-14T18:19:30.931Z,1.38
2022-12-14T18:22:40.824Z,1.40
2022-12-14T18:25:52.253Z,1.45
2022-12-14T18:29:00.894Z,1.47
2022-12-14T18:32:14.451Z,1.56
2022-12-14T18:35:26.503Z,1.67
2022-12-14T18:38:36.689Z,1.75
2022-12-14T18:41:45.677Z,1.77
2022-12-14T18:44:54.225Z,1.79
2022-12-14T18:48:03.771Z,1.81
2022-12-14T18:51:15.395Z,1.79
2022-12-14T18:54:25.092Z,1.76
2022-12-14T18:57:33.492Z,1.73
2022-12-14T19:00:42.037Z,1.67
2022-12-14T19:03:51.213Z,1.63
2022-12-14T19:06:59.632Z,1.59
2022-12-14T19:10:15.765Z,1.58
2022-12-14T19:13:25.982Z,1.53
2022-12-14T19:16:35.235Z,1.44
2022-12-14T19:19:44.740Z,1.39
2022-12-14T19:22:53.611Z,1.38
2022-12-14T19:26:03.798Z,1.35
2022-12-14T19:29:12.365Z,1.36
2022-12-14T19:32:20.814Z,1.33
2022-12-14T19:35:29.518Z,1.29
2022-12-14T19:38:39.039Z,1.22
2022-12-14T19:41:49.719Z,1.15
2022-12-14T19:44:58.530Z,1.09
2022-12-14T19:48:12.888Z,1.06
2022-12-14T19:51:21.891Z,1.05
2022-12-14T19:54:33.765Z,1.08
2022-12-14T19:57:43.483Z,1.17
2022-12-14T20:00:52.946Z,1.13
2022-12-14T20:04:02.347Z,1.13
2022-12-14T20:07:21.810Z,1.15
2022-12-14T20:10:32.922Z,1.18
2022-12-14T20:13:45.763Z,1.23
2022-12-14T20:16:55.472Z,1.21
2022-12-14T20:20:04.948Z,1.08
2022-12-14T20:23:14.694Z,1.09
2022-12-14T20:26:24.292Z,1.12
2022-12-14T20:29:34.473Z,1.11
2022-12-14T20:32:49.412Z,1.18
2022-12-14T20:35:58.101Z,1.17
2022-12-14T20:39:07.509Z,1.15
2022-12-14T20:42:16.002Z,1.23
2022-12-14T20:45:26.033Z,1.23
2022-12-14T20:48:34.732Z,1.29
2022-12-14T20:51:45.305Z,1.21
2022-12-14T20:54:53.659Z,1.20
2022-12-14T20:58:10.003Z,1.23
2022-12-14T21:01:23.340Z,1.12
2022-12-14T21:04:34.969Z,1.11
2022-12-14T21:07:45.988Z,1.08
2022-12-14T21:11:23.046Z,0.95
2022-12-14T21:14:34.918Z,0.93
2022-12-14T21:17:44.829Z,0.94
2022-12-14T21:20:53.395Z,0.93
2022-12-14T21:24:02.019Z,0.91
2022-12-14T21:27:15.260Z,0.88
2022-12-14T21:30:23.543Z,0.91
2022-12-14T21:33:35.680Z,0.90
2022-12-14T21:36:44.239Z,0.92
2022-12-14T21:39:55.173Z,0.91
2022-12-14T21:43:04.005Z,0.83
2022-12-14T21:46:12.827Z,0.81
2022-12-14T21:49:23.225Z,0.79
2022-12-14T21:52:31.881Z,0.82
2022-12-14T21:55:49.973Z,0.77
2022-12-14T21:58:57.266Z,0.78
2022-12-14T22:02:09.911Z,0.68
2022-12-14T22:05:19.822Z,0.82
2022-12-14T22:08:31.009Z,0.79
2022-12-14T22:11:39.641Z,0.91
2022-12-14T22:14:49.636Z,0.95
2022-12-14T22:17:57.825Z,0.91
2022-12-14T22:21:08.037Z,0.92
2022-12-14T22:24:16.858Z,0.95
2022-12-14T22:27:25.096Z,0.93
2022-12-14T22:30:33.808Z,0.87
2022-12-14T22:33:42.189Z,0.85
2022-12-14T22:36:53.330Z,0.81
2022-12-14T22:40:01.817Z,0.91
2022-12-14T22:43:10.139Z,0.91
2022-12-14T22:46:20.452Z,0.98
2022-12-14T22:49:28.699Z,0.99
2022-12-14T22:52:38.462Z,0.98
2022-12-14T22:55:49.973Z,0.99
2022-12-14T22:59:06.163Z,1.00
2022-12-14T23:02:14.743Z,0.95
2022-12-14T23:05:23.101Z,0.85
2022-12-14T23:08:32.929Z,0.78
2022-12-14T23:11:58.797Z,0.75
2022-12-14T23:15:26.447Z,0.68
2022-12-14T23:18:52.633Z,0.63
2022-12-14T23:22:18.509Z,0.73
2022-12-14T23:25:45.487Z,0.84
2022-12-14T23:29:12.373Z,0.85
2022-12-14T23:32:38.517Z,0.75
2022-12-14T23:36:04.376Z,0.82
2022-12-14T23:39:31.479Z,0.85
2022-12-14T23:42:58.764Z,0.95
2022-12-14T23:46:25.110Z,0.95
2022-12-14T23:49:51.319Z,0.87
2022-12-14T23:53:22.895Z,0.72
2022-12-14T23:56:48.890Z,0.68
